Time;durP1;ratioP1;P1;durP2;ratioP2;P2;SDS_P1;SDS_P2;PMS_P1;PMS_P2;Temp;Humidity;BMP_temperature;BMP_pressure;BME280_temperature;BME280_humidity;BME280_pressure;Samples;Min_cycle;Max_cycle;Signal;HPM_P1;HPM_P2
2022/06/16 00:02:43;;;;;;;5.80;4.20;;;;;;;11.74;63.57;100495.43;130263;1268;108869;-71
2022/06/16 00:05:48;;;;;;;5.60;4.20;;;;;;;11.75;63.51;100487.52;130141;1268;108726;-70
2022/06/16 00:08:53;;;;;;;4.50;3.90;;;;;;;11.74;63.54;100488.21;130190;1267;108830;-70
2022/06/16 00:11:58;;;;;;;4.60;4.10;;;;;;;11.72;63.82;100491.94;130186;1268;108840;-69
2022/06/16 00:15:06;;;;;;;5.50;4.30;;;;;;;11.70;63.76;100494.06;130187;1268;109076;-69
2022/06/16 00:18:11;;;;;;;5.40;3.90;;;;;;;11.66;63.78;100499.31;130226;1267;108779;-70
2022/06/16 00:21:17;;;;;;;5.40;4.50;;;;;;;11.58;63.49;100495.61;130208;1267;108677;-68
2022/06/16 00:24:26;;;;;;;4.80;4.20;;;;;;;11.54;64.06;100494.63;130201;1268;108940;-68
2022/06/16 00:27:32;;;;;;;7.10;4.60;;;;;;;11.50;64.32;100488.61;130167;1268;108792;-70
2022/06/16 00:30:37;;;;;;;5.80;4.80;;;;;;;11.46;64.02;100491.52;130177;1268;108938;-69
2022/06/16 00:33:43;;;;;;;6.00;4.70;;;;;;;11.39;64.02;100491.46;130175;1267;108701;-70
2022/06/16 00:36:49;;;;;;;6.00;4.30;;;;;;;11.30;64.10;100488.11;130380;1267;108714;-69
2022/06/16 00:39:54;;;;;;;7.30;3.80;;;;;;;11.25;64.43;100490.02;130312;1267;108995;-70
2022/06/16 00:43:00;;;;;;;5.10;4.10;;;;;;;11.25;64.13;100488.91;130417;1267;108808;-70
2022/06/16 00:46:07;;;;;;;7.50;4.60;;;;;;;11.26;64.10;100485.82;130251;1267;108813;-71
2022/06/16 00:49:15;;;;;;;6.80;4.60;;;;;;;11.26;64.25;100482.98;130309;1267;108889;-70
2022/06/16 00:52:25;;;;;;;7.00;4.40;;;;;;;11.21;64.36;100480.59;130309;1267;109024;-71
2022/06/16 00:55:31;;;;;;;6.70;5.00;;;;;;;11.18;64.26;100476.98;130238;1268;108636;-70
2022/06/16 00:58:40;;;;;;;5.70;4.00;;;;;;;11.17;64.50;100474.94;130220;1267;108901;-69
2022/06/16 01:01:47;;;;;;;7.00;5.10;;;;;;;11.15;64.42;100469.42;130193;1268;108622;-70
2022/06/16 01:04:52;;;;;;;7.10;4.90;;;;;;;11.11;64.34;100470.21;130336;1268;108813;-71
2022/06/16 01:07:59;;;;;;;7.90;5.50;;;;;;;11.09;64.42;100470.38;130323;1267;108611;-70
2022/06/16 01:13:41;;;;;;;7.80;4.90;;;;;;;11.05;64.41;100465.30;130227;1268;108723;-71
2022/06/16 01:15:00;;;;;;;6.10;4.70;;;;;;;11.00;64.63;100466.33;130338;1267;108822;-71
2022/06/16 01:18:15;;;;;;;6.90;4.80;;;;;;;10.97;64.64;100466.98;130349;1267;107801;-71
2022/06/16 01:21:28;;;;;;;7.00;4.90;;;;;;;10.94;64.54;100466.23;130330;1268;108791;-72
2022/06/16 01:24:54;;;;;;;7.20;4.30;;;;;;;10.88;64.66;100466.40;130308;1267;108907;-72
2022/06/16 01:28:17;;;;;;;6.50;4.20;;;;;;;10.84;64.68;100459.84;130186;1268;108806;-69
2022/06/16 01:31:30;;;;;;;6.80;4.80;;;;;;;10.87;64.85;100456.73;130184;1268;108687;-69
2022/06/16 01:34:46;;;;;;;8.00;4.80;;;;;;;10.90;64.80;100466.73;130102;1268;108643;-68
2022/06/16 01:38:03;;;;;;;6.20;4.80;;;;;;;10.90;64.78;100464.05;130215;1267;108705;-69
2022/06/16 01:41:17;;;;;;;7.60;5.20;;;;;;;10.91;64.85;100464.17;130111;1267;108771;-70
2022/06/16 01:44:28;;;;;;;7.20;4.70;;;;;;;10.91;65.07;100466.60;130250;1268;108992;-72
2022/06/16 01:47:35;;;;;;;6.60;5.30;;;;;;;10.89;64.99;100469.00;130260;1267;108851;-72
2022/06/16 01:50:49;;;;;;;7.80;4.80;;;;;;;10.88;65.19;100470.16;130244;1268;108684;-71
2022/06/16 01:54:01;;;;;;;7.40;4.80;;;;;;;10.87;65.23;100470.73;130351;1267;108927;-71
2022/06/16 01:57:11;;;;;;;6.30;4.90;;;;;;;10.86;65.28;100470.90;130373;1267;108968;-72
2022/06/16 02:00:21;;;;;;;6.50;4.60;;;;;;;10.85;65.32;100468.55;130373;1267;108913;-71
2022/06/16 02:03:32;;;;;;;5.90;4.30;;;;;;;10.80;65.66;100473.96;130308;1267;107748;-69
2022/06/16 02:06:43;;;;;;;5.80;4.40;;;;;;;10.80;65.49;100470.59;130226;1267;108804;-70
2022/06/16 02:09:51;;;;;;;5.70;4.20;;;;;;;10.84;65.64;100466.67;130187;1268;108767;-72
2022/06/16 02:13:00;;;;;;;5.80;4.60;;;;;;;10.88;65.62;100468.16;130282;1268;109035;-74
2022/06/16 02:16:19;;;;;;;7.60;5.10;;;;;;;10.93;65.95;100467.89;130379;1268;108882;-75
2022/06/16 02:19:27;;;;;;;6.20;4.20;;;;;;;10.95;65.63;100469.27;130215;1268;108577;-70
2022/06/16 02:22:32;;;;;;;5.90;4.50;;;;;;;10.97;65.85;100472.10;130127;1268;108710;-70
2022/06/16 02:25:37;;;;;;;6.00;4.70;;;;;;;10.98;65.79;100470.56;130290;1268;108715;-72
2022/06/16 02:28:48;;;;;;;6.20;4.70;;;;;;;10.97;65.80;100474.55;130310;1268;108713;-71
2022/06/16 02:32:08;;;;;;;5.50;4.20;;;;;;;10.96;65.89;100474.32;130234;1268;108732;-71
2022/06/16 02:35:28;;;;;;;5.60;4.70;;;;;;;10.96;66.09;100474.36;130393;1268;108685;-72
2022/06/16 02:38:48;;;;;;;8.70;4.80;;;;;;;10.95;66.14;100471.56;130198;1267;108863;-72
2022/06/16 02:42:04;;;;;;;6.00;4.40;;;;;;;10.94;66.12;100474.88;130294;1267;108751;-70
2022/06/16 02:45:23;;;;;;;6.60;4.10;;;;;;;10.95;66.31;100472.33;130232;1267;108818;-70
2022/06/16 02:48:36;;;;;;;7.80;4.30;;;;;;;11.02;66.36;100471.48;129948;1268;285560;-69
2022/06/16 02:51:50;;;;;;;5.60;4.70;;;;;;;11.12;66.61;100468.30;130236;1267;108954;-70
2022/06/16 02:55:01;;;;;;;6.50;4.40;;;;;;;11.23;66.26;100464.02;130157;1267;108688;-68
2022/06/16 02:58:11;;;;;;;6.60;4.80;;;;;;;11.33;66.51;100452.55;130238;1268;108809;-68
2022/06/16 03:01:22;;;;;;;5.60;4.40;;;;;;;11.45;66.32;100456.20;130239;1267;108738;-68
2022/06/16 03:04:36;;;;;;;5.40;4.30;;;;;;;11.53;66.40;100450.86;130137;1268;108663;-70
2022/06/16 03:07:42;;;;;;;6.10;4.60;;;;;;;11.61;66.64;100450.31;130168;1267;108704;-71
2022/06/16 03:11:02;;;;;;;6.60;4.50;;;;;;;11.67;66.52;100447.33;130313;1267;108729;-71
2022/06/16 03:14:10;;;;;;;6.70;5.20;;;;;;;11.78;67.10;100443.16;130328;1267;109031;-71
2022/06/16 03:17:19;;;;;;;8.10;5.10;;;;;;;11.90;66.64;100443.14;130336;1267;108807;-72
2022/06/16 03:20:26;;;;;;;6.40;4.20;;;;;;;11.99;66.85;100444.67;130337;1267;107675;-71
2022/06/16 03:23:31;;;;;;;5.80;4.30;;;;;;;12.11;67.03;100443.91;130241;1267;109112;-70
2022/06/16 03:26:37;;;;;;;5.50;4.50;;;;;;;12.32;66.96;100442.14;130141;1268;108754;-71
2022/06/16 03:29:43;;;;;;;6.00;4.80;;;;;;;12.54;66.84;100441.14;130151;1267;108756;-70
2022/06/16 03:32:49;;;;;;;6.70;4.60;;;;;;;12.77;66.93;100444.73;130216;1267;108700;-70
2022/06/16 03:35:57;;;;;;;5.80;5.20;;;;;;;13.00;66.80;100446.83;130201;1267;108748;-73
2022/06/16 03:39:04;;;;;;;6.10;4.50;;;;;;;13.22;66.90;100446.10;130297;1268;107680;-71
2022/06/16 03:42:10;;;;;;;8.10;5.50;;;;;;;13.43;66.76;100446.32;130361;1268;108744;-70
2022/06/16 03:45:16;;;;;;;6.40;5.40;;;;;;;13.63;66.88;100435.65;130214;1268;108787;-69
2022/06/16 03:48:22;;;;;;;5.90;5.10;;;;;;;13.85;66.92;100433.61;130144;1268;108594;-70
2022/06/16 03:51:28;;;;;;;7.10;4.80;;;;;;;14.04;67.01;100436.23;130261;1268;108982;-69
2022/06/16 03:54:33;;;;;;;6.20;3.80;;;;;;;14.23;66.99;100434.48;130274;1268;108765;-69
2022/06/16 03:57:41;;;;;;;6.00;4.40;;;;;;;14.42;67.01;100438.06;130307;1268;108736;-69
2022/06/16 04:00:50;;;;;;;5.50;4.20;;;;;;;14.65;66.97;100438.67;130142;1267;108764;-69
2022/06/16 04:04:03;;;;;;;10.10;5.00;;;;;;;14.90;67.13;100435.62;130361;1267;108615;-69
2022/06/16 04:07:23;;;;;;;6.00;4.40;;;;;;;15.18;66.90;100432.17;130339;1268;109532;-69
2022/06/16 04:10:48;;;;;;;5.90;5.10;;;;;;;15.41;66.95;100426.16;130159;1268;108886;-69
2022/06/16 04:13:54;;;;;;;6.00;5.00;;;;;;;15.60;66.81;100423.18;130151;1268;107793;-69
2022/06/16 04:17:00;;;;;;;7.10;5.20;;;;;;;15.78;66.97;100423.27;130374;1267;108768;-71
2022/06/16 04:20:17;;;;;;;7.40;5.10;;;;;;;15.95;66.92;100423.85;130418;1268;108682;-70
2022/06/16 04:23:49;;;;;;;7.40;5.10;;;;;;;16.11;66.70;100416.41;130494;1268;108619;-73
2022/06/16 04:26:57;;;;;;;6.80;4.80;;;;;;;16.25;66.86;100414.38;130286;1268;109556;-72
2022/06/16 04:30:03;;;;;;;8.00;4.40;;;;;;;16.40;66.62;100415.06;130296;1268;107080;-71
2022/06/16 04:33:10;;;;;;;6.10;4.50;;;;;;;16.53;66.61;100414.44;130548;1267;108784;-69
2022/06/16 04:36:17;;;;;;;7.00;5.20;;;;;;;16.67;66.67;100416.39;130361;1267;108988;-76
2022/06/16 04:39:33;;;;;;;6.60;4.80;;;;;;;16.84;66.63;100411.09;130360;1268;108849;-76
2022/06/16 04:42:40;;;;;;;6.30;4.50;;;;;;;16.99;66.45;100411.46;130506;1267;108681;-73
2022/06/16 04:45:48;;;;;;;5.80;4.60;;;;;;;17.13;66.43;100412.53;130495;1268;108918;-71
2022/06/16 04:48:54;;;;;;;7.00;4.30;;;;;;;17.28;66.14;100414.16;130359;1268;107769;-72
2022/06/16 04:52:00;;;;;;;7.80;4.70;;;;;;;17.36;65.87;100410.00;130465;1267;108976;-73
2022/06/16 04:55:09;;;;;;;6.30;4.60;;;;;;;17.49;65.76;100410.98;130447;1267;107677;-71
2022/06/16 04:58:33;;;;;;;6.90;4.50;;;;;;;17.66;65.64;100407.39;130399;1267;108864;-72
2022/06/16 05:01:57;;;;;;;6.00;4.80;;;;;;;17.78;65.44;100405.27;130441;1267;107383;-72
2022/06/16 05:05:28;;;;;;;6.70;4.90;;;;;;;17.86;65.19;100400.70;130495;1267;108743;-71
2022/06/16 05:09:08;;;;;;;7.20;4.80;;;;;;;18.03;65.16;100402.27;129603;1271;108842;-74
2022/06/16 05:12:32;;;;;;;6.50;4.60;;;;;;;18.18;64.92;100399.12;130496;1267;108841;-73
2022/06/16 05:15:46;;;;;;;7.70;5.10;;;;;;;18.29;64.81;100399.77;130464;1267;108702;-73
2022/06/16 05:19:10;;;;;;;6.60;4.80;;;;;;;18.42;64.57;100397.16;130440;1268;108818;-74
2022/06/16 05:22:20;;;;;;;6.10;5.50;;;;;;;18.60;64.65;100396.06;130478;1268;108769;-74
2022/06/16 05:25:50;;;;;;;6.30;5.20;;;;;;;18.79;64.48;100388.71;130444;1268;108850;-75
2022/06/16 05:29:25;;;;;;;7.10;4.80;;;;;;;18.94;64.38;100388.52;130392;1267;108761;-70
2022/06/16 05:32:54;;;;;;;7.90;5.10;;;;;;;19.04;64.05;100392.64;130375;1268;108974;-72
2022/06/16 05:36:21;;;;;;;5.50;4.60;;;;;;;19.09;63.91;100390.71;130432;1268;108661;-71
2022/06/16 05:39:47;;;;;;;8.10;4.80;;;;;;;19.11;63.75;100386.54;130488;1268;109270;-72
2022/06/16 05:43:06;;;;;;;6.50;4.90;;;;;;;19.12;63.74;100391.75;130261;1267;108692;-71
2022/06/16 05:46:30;;;;;;;5.70;4.30;;;;;;;19.14;63.54;100392.79;130487;1267;108952;-71
2022/06/16 05:49:40;;;;;;;6.30;5.60;;;;;;;19.17;63.43;100393.30;130462;1268;108838;-71
2022/06/16 05:52:48;;;;;;;7.10;4.70;;;;;;;19.18;63.33;100391.80;130464;1267;108953;-71
2022/06/16 05:56:08;;;;;;;6.50;4.40;;;;;;;19.20;63.27;100385.77;130355;1268;108636;-70
2022/06/16 05:59:16;;;;;;;7.20;4.60;;;;;;;19.20;62.99;100380.77;130345;1268;108930;-72
2022/06/16 06:02:25;;;;;;;6.00;4.80;;;;;;;19.28;62.94;100376.69;130421;1268;108826;-72
2022/06/16 06:05:35;;;;;;;7.70;5.00;;;;;;;19.43;63.04;100372.66;130262;1268;108973;-71
2022/06/16 06:18:58;;;;;;;5.10;4.60;;;;;;;19.67;61.90;100363.06;130297;1268;108809;-71
2022/06/16 06:22:10;;;;;;;5.30;4.70;;;;;;;19.74;62.27;100359.41;130199;1268;108964;-73
2022/06/16 06:25:16;;;;;;;7.00;4.70;;;;;;;19.84;62.01;100358.49;130324;1268;108703;-73
2022/06/16 06:28:24;;;;;;;4.90;4.30;;;;;;;19.88;61.70;100358.82;130448;1268;108878;-72
2022/06/16 06:31:29;;;;;;;5.20;4.60;;;;;;;19.90;61.46;100363.93;130448;1268;108700;-73
2022/06/16 06:34:34;;;;;;;4.50;4.00;;;;;;;19.88;61.00;100362.02;130276;1268;108645;-72
2022/06/16 06:37:39;;;;;;;4.70;4.10;;;;;;;19.89;60.80;100359.95;130487;1267;108793;-75
2022/06/16 06:40:45;;;;;;;6.80;4.30;;;;;;;19.91;60.71;100358.18;130447;1268;108944;-72
2022/06/16 06:43:50;;;;;;;6.30;4.30;;;;;;;19.95;60.85;100356.50;130456;1267;109576;-73
2022/06/16 06:46:55;;;;;;;4.40;4.00;;;;;;;20.04;60.81;100350.11;130395;1268;108730;-71
2022/06/16 06:50:01;;;;;;;5.30;4.40;;;;;;;20.12;60.92;100346.79;130496;1267;108724;-73
2022/06/16 06:53:06;;;;;;;4.50;4.00;;;;;;;20.19;60.93;100345.22;130469;1268;109121;-74
2022/06/16 06:56:14;;;;;;;4.60;3.70;;;;;;;20.29;60.76;100345.73;130485;1268;108778;-71
2022/06/16 06:59:20;;;;;;;5.50;3.40;;;;;;;20.35;60.48;100345.77;130393;1268;108965;-72
2022/06/16 07:02:25;;;;;;;4.00;3.50;;;;;;;20.39;60.16;100340.84;130479;1268;108623;-71
2022/06/16 07:05:31;;;;;;;5.00;3.50;;;;;;;20.42;59.85;100335.52;130470;1268;109914;-69
2022/06/16 07:08:36;;;;;;;4.30;3.20;;;;;;;20.48;59.64;100339.52;130289;1268;108922;-70
2022/06/16 07:11:42;;;;;;;4.90;3.40;;;;;;;20.55;59.82;100333.88;130326;1268;108715;-69
2022/06/16 07:14:50;;;;;;;4.50;3.10;;;;;;;20.65;59.38;100332.02;130452;1268;108664;-68
2022/06/16 07:17:56;;;;;;;3.70;3.10;;;;;;;20.75;59.08;100325.33;130507;1268;108966;-68
2022/06/16 07:21:01;;;;;;;4.30;2.70;;;;;;;20.85;58.82;100328.44;130385;1267;109085;-69
2022/06/16 07:24:07;;;;;;;3.10;2.70;;;;;;;20.92;58.21;100327.05;130305;1267;108810;-68
2022/06/16 07:27:13;;;;;;;4.20;2.70;;;;;;;20.97;58.30;100319.39;130460;1268;108813;-69
2022/06/16 07:30:21;;;;;;;4.40;2.70;;;;;;;21.07;58.60;100319.38;130361;1268;108803;-71
2022/06/16 07:33:26;;;;;;;3.60;2.80;;;;;;;21.14;58.41;100322.63;130296;1268;108896;-69
2022/06/16 07:36:31;;;;;;;3.80;2.90;;;;;;;21.22;58.31;100320.98;130280;1268;108787;-69
2022/06/16 07:39:37;;;;;;;3.20;2.60;;;;;;;21.32;58.09;100320.42;130277;1268;108850;-69
2022/06/16 07:42:44;;;;;;;5.50;2.90;;;;;;;21.41;58.01;100312.25;130310;1268;108747;-71
2022/06/16 07:45:50;;;;;;;4.20;2.60;;;;;;;21.53;57.87;100309.99;130446;1268;108779;-70
2022/06/16 07:48:55;;;;;;;2.80;2.30;;;;;;;21.61;57.50;100307.91;130261;1268;108682;-69
2022/06/16 07:52:01;;;;;;;3.80;2.70;;;;;;;21.69;57.46;100304.23;130286;1268;108859;-70
2022/06/16 07:55:08;;;;;;;3.20;2.70;;;;;;;21.78;57.34;100302.51;130444;1268;108838;-70
2022/06/16 07:58:14;;;;;;;3.90;2.60;;;;;;;21.86;57.39;100305.13;130271;1268;108777;-71
2022/06/16 08:01:19;;;;;;;3.20;2.50;;;;;;;21.96;56.88;100303.52;130336;1267;108831;-71
2022/06/16 08:04:24;;;;;;;3.70;2.60;;;;;;;22.02;56.62;100297.59;130404;1267;108886;-71
2022/06/16 08:07:30;;;;;;;5.40;2.50;;;;;;;22.09;56.20;100297.91;130435;1268;108689;-71
2022/06/16 08:10:35;;;;;;;4.10;2.50;;;;;;;22.17;56.47;100299.70;130268;1268;109099;-70
2022/06/16 08:13:41;;;;;;;4.10;2.90;;;;;;;22.22;55.76;100300.52;130278;1267;108395;-71
2022/06/16 08:16:46;;;;;;;3.40;2.80;;;;;;;22.21;55.64;100306.84;130477;1268;108807;-74
2022/06/16 08:19:51;;;;;;;2.90;2.50;;;;;;;22.26;55.34;100301.62;130401;1267;108782;-70
2022/06/16 08:22:57;;;;;;;3.40;2.60;;;;;;;22.33;55.55;100304.88;130335;1267;109231;-71
2022/06/16 08:26:03;;;;;;;4.20;2.60;;;;;;;22.41;55.27;100300.67;130596;1268;108954;-74
2022/06/16 08:29:12;;;;;;;2.60;2.20;;;;;;;22.46;55.08;100297.23;130406;1268;108761;-72
2022/06/16 08:32:19;;;;;;;2.80;2.10;;;;;;;22.54;54.69;100294.72;130406;1268;108851;-71
2022/06/16 08:35:25;;;;;;;4.70;2.50;;;;;;;22.64;54.15;100297.80;130482;1268;108609;-70
2022/06/16 08:38:30;;;;;;;2.80;2.30;;;;;;;22.81;54.55;100296.35;130032;1268;108760;-71
2022/06/16 08:41:43;;;;;;;4.10;2.50;;;;;;;22.96;53.65;100294.71;130260;1268;108542;-71
2022/06/16 08:45:00;;;;;;;3.70;2.30;;;;;;;23.10;53.27;100293.35;130260;1268;108867;-72
2022/06/16 08:48:19;;;;;;;2.80;2.30;;;;;;;23.25;53.40;100296.57;130250;1268;109625;-72
2022/06/16 08:51:35;;;;;;;3.10;2.30;;;;;;;23.39;53.37;100294.31;130195;1268;108763;-74
2022/06/16 08:54:52;;;;;;;3.00;2.30;;;;;;;23.62;53.15;100289.76;130341;1268;108716;-71
2022/06/16 08:58:06;;;;;;;3.10;2.60;;;;;;;23.77;52.65;100286.66;130259;1268;107735;-78
2022/06/16 09:01:16;;;;;;;3.00;2.20;;;;;;;23.82;52.48;100288.60;130238;1268;108650;-78
2022/06/16 09:04:28;;;;;;;2.30;2.00;;;;;;;23.82;52.32;100287.34;130212;1268;109073;-78
2022/06/16 09:07:47;;;;;;;2.60;2.00;;;;;;;23.86;52.20;100286.96;130485;1268;108709;-76
2022/06/16 09:10:59;;;;;;;3.50;2.00;;;;;;;23.92;52.03;100287.86;130427;1268;109215;-75
2022/06/16 09:15:10;;;;;;;3.70;2.20;;;;;;;24.03;52.22;100284.33;130387;1268;108271;-78
2022/06/16 09:18:26;;;;;;;3.40;2.40;;;;;;;24.16;51.85;100282.13;130396;1268;108696;-77
2022/06/16 09:21:43;;;;;;;2.90;2.30;;;;;;;24.21;51.66;100286.34;130430;1267;108812;-73
2022/06/16 09:25:03;;;;;;;3.10;2.10;;;;;;;24.26;51.60;100286.97;130414;1268;108896;-74
2022/06/16 09:28:15;;;;;;;2.40;2.20;;;;;;;24.31;50.80;100286.04;130444;1267;108515;-77
2022/06/16 09:31:26;;;;;;;2.50;2.10;;;;;;;24.33;50.82;100284.31;130410;1268;108682;-72
2022/06/16 09:34:39;;;;;;;3.00;2.00;;;;;;;24.30;50.77;100286.06;130420;1268;109045;-75
2022/06/16 09:37:49;;;;;;;2.30;1.80;;;;;;;24.28;50.60;100283.73;130398;1267;108912;-74
2022/06/16 09:40:59;;;;;;;2.70;1.90;;;;;;;24.30;50.49;100279.26;130358;1268;108800;-75
2022/06/16 09:44:14;;;;;;;1.90;1.70;;;;;;;24.35;50.29;100284.23;130352;1268;107130;-72
2022/06/16 09:47:24;;;;;;;2.00;1.60;;;;;;;24.34;49.77;100285.21;130359;1267;108773;-72
2022/06/16 09:50:37;;;;;;;2.90;1.80;;;;;;;24.35;49.44;100278.69;130458;1268;108061;-70
2022/06/16 09:53:48;;;;;;;2.40;1.60;;;;;;;24.44;49.35;100282.13;130445;1268;109194;-71
2022/06/16 09:56:59;;;;;;;2.50;1.80;;;;;;;24.56;48.88;100278.62;130541;1268;108758;-71
2022/06/16 10:00:10;;;;;;;3.10;1.90;;;;;;;24.61;48.91;100277.45;130423;1268;107628;-72
2022/06/16 10:03:26;;;;;;;3.40;2.40;;;;;;;24.65;49.12;100278.29;130396;1268;108712;-72
2022/06/16 10:06:43;;;;;;;2.40;2.00;;;;;;;24.75;49.05;100278.08;130414;1268;108830;-71
2022/06/16 10:09:52;;;;;;;2.80;1.70;;;;;;;24.83;48.92;100274.45;130436;1268;109175;-70
2022/06/16 10:13:04;;;;;;;2.10;1.80;;;;;;;24.89;48.81;100278.48;130365;1268;108730;-77
2022/06/16 10:16:13;;;;;;;;;;;;;;;24.91;48.43;100274.63;130373;1268;108689;-69
2022/06/16 10:19:19;;;;;;;2.10;1.80;;;;;;;24.94;48.09;100271.13;130319;1268;107752;-76
2022/06/16 10:22:26;;;;;;;4.80;1.70;;;;;;;24.92;47.87;100271.43;130390;1268;108975;-74
2022/06/16 10:25:36;;;;;;;3.40;1.70;;;;;;;24.85;47.32;100267.39;130422;1268;107647;-72
2022/06/16 10:29:01;;;;;;;2.20;1.70;;;;;;;24.81;46.75;100262.18;130456;1268;108780;-70
2022/06/16 10:32:17;;;;;;;4.10;1.80;;;;;;;24.74;46.29;100258.58;130337;1268;108683;-70
2022/06/16 10:35:23;;;;;;;2.20;1.80;;;;;;;24.77;46.65;100254.64;130462;1268;108780;-75
2022/06/16 10:38:35;;;;;;;2.30;1.70;;;;;;;24.82;46.51;100259.04;130339;1268;108268;-74
2022/06/16 10:41:50;;;;;;;2.20;1.80;;;;;;;24.85;46.45;100259.58;130428;1268;108707;-75
2022/06/16 10:45:00;;;;;;;2.40;1.70;;;;;;;24.95;46.30;100252.05;130384;1268;108620;-70
2022/06/16 10:48:08;;;;;;;2.70;1.70;;;;;;;25.06;46.54;100258.60;130308;1268;107735;-70
2022/06/16 10:51:15;;;;;;;3.70;1.80;;;;;;;25.16;46.11;100256.46;130239;1268;109090;-70
2022/06/16 10:54:30;;;;;;;3.00;2.10;;;;;;;25.25;46.38;100255.49;130310;1269;108796;-72
2022/06/16 10:57:43;;;;;;;1.80;1.50;;;;;;;25.33;46.02;100254.17;130375;1268;108756;-70
2022/06/16 11:01:03;;;;;;;2.90;1.60;;;;;;;25.38;45.73;100246.88;130223;1268;108708;-70
2022/06/16 11:04:11;;;;;;;2.60;1.70;;;;;;;25.38;45.64;100244.27;130223;1268;108856;-70
2022/06/16 11:07:24;;;;;;;3.60;1.90;;;;;;;25.41;45.46;100248.45;130286;1268;109245;-69
2022/06/16 11:10:35;;;;;;;2.10;1.60;;;;;;;25.41;45.18;100245.17;130170;1268;108742;-68
2022/06/16 11:13:49;;;;;;;3.20;2.00;;;;;;;25.42;45.28;100245.48;130257;1268;108801;-70
2022/06/16 11:16:56;;;;;;;1.80;1.50;;;;;;;25.50;45.17;100244.14;130237;1268;108746;-69
2022/06/16 11:20:05;;;;;;;1.60;1.50;;;;;;;25.56;45.31;100239.64;130226;1268;109033;-70
2022/06/16 11:23:29;;;;;;;3.90;1.60;;;;;;;25.60;45.46;100236.96;130315;1268;108760;-75
2022/06/16 11:26:37;;;;;;;2.00;1.70;;;;;;;25.59;45.12;100238.27;130379;1268;108684;-72
2022/06/16 11:29:43;;;;;;;2.30;1.60;;;;;;;25.57;45.41;100234.14;130310;1268;108675;-70
2022/06/16 11:32:49;;;;;;;2.10;1.60;;;;;;;25.57;45.29;100232.93;130217;1268;108662;-69
2022/06/16 11:35:58;;;;;;;3.30;1.60;;;;;;;25.57;45.16;100227.66;130173;1268;108876;-68
2022/06/16 11:39:11;;;;;;;2.80;1.70;;;;;;;25.54;44.86;100228.67;130207;1267;108723;-69
2022/06/16 11:42:43;;;;;;;2.20;1.60;;;;;;;25.48;44.60;100224.28;130199;1268;108954;-69
2022/06/16 11:45:50;;;;;;;;;;;;;;;25.41;44.45;100217.64;130240;1268;108962;-69
2022/06/16 11:49:15;;;;;;;1.90;1.60;;;;;;;25.37;44.24;100215.55;130186;1267;108712;-72
2022/06/16 11:52:27;;;;;;;2.20;1.60;;;;;;;25.35;43.97;100213.85;130302;1268;108928;-72
2022/06/16 11:55:39;;;;;;;3.10;1.90;;;;;;;25.34;43.77;100206.83;130353;1268;108586;-72
2022/06/16 11:59:03;;;;;;;3.30;1.50;;;;;;;25.35;43.74;100205.52;130384;1268;107628;-71
2022/06/16 12:02:33;;;;;;;2.10;1.70;;;;;;;25.37;43.60;100201.41;130172;1268;108630;-71
2022/06/16 12:05:42;;;;;;;2.40;1.80;;;;;;;25.35;43.87;100193.30;130210;1268;108747;-75
2022/06/16 12:09:02;;;;;;;2.80;1.90;;;;;;;25.36;43.66;100188.81;130333;1268;108874;-71
2022/06/16 12:12:12;;;;;;;2.00;1.60;;;;;;;25.39;43.45;100185.81;129786;1268;108873;-71
2022/06/16 12:15:29;;;;;;;3.60;1.70;;;;;;;25.40;43.49;100179.28;130373;1268;108588;-72
2022/06/16 12:18:57;;;;;;;2.50;1.80;;;;;;;25.44;43.56;100173.20;130426;1268;108781;-72
2022/06/16 12:22:09;;;;;;;4.00;1.70;;;;;;;25.50;42.97;100172.02;130248;1268;108819;-71
2022/06/16 12:25:23;;;;;;;3.10;1.90;;;;;;;25.50;42.73;100164.31;130274;1268;108951;-71
2022/06/16 12:28:36;;;;;;;3.20;1.80;;;;;;;25.52;42.89;100162.98;130163;1268;108650;-71
2022/06/16 12:31:58;;;;;;;4.20;1.80;;;;;;;25.57;42.51;100156.38;130246;1268;108796;-71
2022/06/16 12:35:14;;;;;;;4.50;2.10;;;;;;;25.62;42.46;100149.98;130218;1268;109091;-71
2022/06/16 12:38:27;;;;;;;4.50;2.40;;;;;;;25.73;42.97;100145.48;130236;1268;109114;-71
2022/06/16 12:41:37;;;;;;;3.70;1.90;;;;;;;25.84;43.15;100147.27;130216;1268;108722;-71
2022/06/16 12:44:47;;;;;;;6.60;2.80;;;;;;;25.91;42.80;100148.56;130237;1268;108886;-70
2022/06/16 12:47:58;;;;;;;4.10;2.30;;;;;;;25.96;42.54;100139.39;130219;1268;108754;-73
2022/06/16 12:51:07;;;;;;;4.60;3.00;;;;;;;26.16;42.18;100136.86;130116;1268;107625;-73
2022/06/16 12:54:15;;;;;;;3.50;1.70;;;;;;;26.34;42.30;100133.67;130235;1268;108679;-73
2022/06/16 12:57:25;;;;;;;3.20;1.80;;;;;;;26.46;42.24;100132.83;130141;1268;107740;-73
2022/06/16 13:00:34;;;;;;;5.00;2.20;;;;;;;26.50;42.44;100129.30;130249;1268;108862;-70
2022/06/16 13:03:47;;;;;;;3.60;1.90;;;;;;;26.52;42.52;100121.89;130235;1268;108782;-73
2022/06/16 13:06:54;;;;;;;2.80;1.80;;;;;;;26.50;42.14;100116.88;130217;1268;107901;-73
2022/06/16 13:10:00;;;;;;;3.20;2.10;;;;;;;26.46;41.96;100112.75;130220;1267;109150;-72
2022/06/16 13:13:07;;;;;;;2.90;1.90;;;;;;;26.42;42.45;100105.34;130205;1268;107155;-72
2022/06/16 13:16:15;;;;;;;3.00;1.60;;;;;;;26.38;41.70;100097.21;130219;1268;108967;-72
2022/06/16 13:19:23;;;;;;;3.10;2.00;;;;;;;26.36;41.75;100094.73;130209;1268;108975;-71
2022/06/16 13:22:35;;;;;;;3.50;1.80;;;;;;;26.44;41.49;100095.02;130249;1268;107625;-72
2022/06/16 13:25:51;;;;;;;2.70;2.00;;;;;;;26.52;41.97;100090.80;130206;1268;108895;-72
2022/06/16 13:29:15;;;;;;;2.10;1.90;;;;;;;26.56;41.86;100082.62;130204;1268;109138;-72
2022/06/16 13:32:37;;;;;;;3.20;2.00;;;;;;;26.60;41.34;100074.36;130328;1268;107728;-72
2022/06/16 13:35:53;;;;;;;3.10;2.20;;;;;;;26.65;41.25;100068.64;130259;1268;108833;-72
2022/06/16 13:38:59;;;;;;;2.20;1.80;;;;;;;26.75;40.65;100057.65;130293;1268;109045;-72
2022/06/16 13:42:17;;;;;;;2.70;1.90;;;;;;;26.73;39.98;100052.33;130259;1268;108656;-72
2022/06/16 13:45:38;;;;;;;2.50;1.80;;;;;;;26.71;40.50;100054.27;130272;1268;108945;-72
2022/06/16 13:48:50;;;;;;;2.90;2.40;;;;;;;26.72;40.52;100049.56;130279;1268;108861;-72
2022/06/16 13:52:05;;;;;;;3.80;2.10;;;;;;;26.72;40.07;100047.98;130294;1268;108807;-73
2022/06/16 13:55:29;;;;;;;2.80;2.00;;;;;;;26.77;40.50;100043.70;130229;1268;108744;-72
2022/06/16 13:58:36;;;;;;;2.10;1.90;;;;;;;26.87;40.45;100043.63;130271;1267;108927;-72
2022/06/16 14:02:08;;;;;;;2.40;1.80;;;;;;;26.91;40.45;100039.27;130251;1268;108944;-72
2022/06/16 14:05:23;;;;;;;5.60;3.20;;;;;;;26.73;40.64;100033.98;130185;1268;108670;-72
2022/06/16 14:08:29;;;;;;;4.90;2.30;;;;;;;26.56;40.91;100035.45;130225;1268;108616;-74
2022/06/16 14:11:36;;;;;;;4.30;2.20;;;;;;;26.43;41.08;100031.31;130292;1268;108727;-72
2022/06/16 14:15:09;;;;;;;2.90;2.10;;;;;;;26.36;41.04;100031.09;130210;1268;108842;-71
2022/06/16 14:18:21;;;;;;;2.60;2.10;;;;;;;26.31;40.81;100030.30;130207;1267;108853;-72
2022/06/16 14:21:32;;;;;;;3.10;2.20;;;;;;;26.33;40.87;100029.33;130223;1268;107645;-72
2022/06/16 14:24:54;;;;;;;3.00;2.00;;;;;;;26.40;41.17;100025.93;130239;1268;108852;-72
2022/06/16 14:28:04;;;;;;;3.00;1.80;;;;;;;26.53;40.93;100024.31;130189;1268;109120;-72
2022/06/16 14:31:14;;;;;;;3.60;2.60;;;;;;;26.58;40.81;100028.02;130187;1268;108847;-72
2022/06/16 14:34:27;;;;;;;2.20;2.00;;;;;;;26.57;41.36;100026.59;130230;1268;108865;-72
2022/06/16 14:37:37;;;;;;;3.60;2.30;;;;;;;26.47;40.77;100021.65;130189;1268;108605;-72
2022/06/16 14:40:47;;;;;;;3.00;2.50;;;;;;;26.37;40.82;100022.58;130205;1268;107736;-72
2022/06/16 14:44:01;;;;;;;2.40;2.10;;;;;;;26.28;40.75;100022.57;130231;1268;108804;-72